sensor_id;sensor_type;location;lat;lon;timestamp;P1;durP1;ratioP1;P2;durP2;ratioP2
72924;SDS011;61070;50.794;7.054;2022-12-17T00:00:59;92.65;;;27.30;;
72924;SDS011;61070;50.794;7.054;2022-12-17T00:03:44;86.88;;;27.27;;
72924;SDS011;61070;50.794;7.054;2022-12-17T00:06:27;88.40;;;28.35;;
72924;SDS011;61070;50.794;7.054;2022-12-17T00:09:11;96.40;;;28.83;;
72924;SDS011;61070;50.794;7.054;2022-12-17T00:11:55;95.15;;;28.65;;
72924;SDS011;61070;50.794;7.054;2022-12-17T00:14:39;95.00;;;30.58;;
72924;SDS011;61070;50.794;7.054;2022-12-17T00:17:23;97.85;;;28.90;;
72924;SDS011;61070;50.794;7.054;2022-12-17T00:20:07;94.75;;;28.80;;
72924;SDS011;61070;50.794;7.054;2022-12-17T00:23:01;95.45;;;30.20;;
72924;SDS011;61070;50.794;7.054;2022-12-17T00:25:53;97.88;;;30.27;;
72924;SDS011;61070;50.794;7.054;2022-12-17T00:28:38;111.60;;;32.05;;
72924;SDS011;61070;50.794;7.054;2022-12-17T00:31:24;97.18;;;29.60;;
72924;SDS011;61070;50.794;7.054;2022-12-17T00:34:08;95.28;;;29.70;;
72924;SDS011;61070;50.794;7.054;2022-12-17T00:36:52;102.07;;;30.55;;
72924;SDS011;61070;50.794;7.054;2022-12-17T00:39:36;108.68;;;29.63;;
72924;SDS011;61070;50.794;7.054;2022-12-17T00:42:20;96.50;;;32.40;;
72924;SDS011;61070;50.794;7.054;2022-12-17T00:45:04;111.47;;;29.83;;
72924;SDS011;61070;50.794;7.054;2022-12-17T00:47:48;101.15;;;29.30;;
72924;SDS011;61070;50.794;7.054;2022-12-17T00:50:32;104.03;;;30.88;;
72924;SDS011;61070;50.794;7.054;2022-12-17T00:53:16;106.90;;;33.70;;
72924;SDS011;61070;50.794;7.054;2022-12-17T00:56:00;109.75;;;32.70;;
72924;SDS011;61070;50.794;7.054;2022-12-17T00:58:44;105.95;;;29.10;;
72924;SDS011;61070;50.794;7.054;2022-12-17T01:01:28;104.95;;;34.38;;
72924;SDS011;61070;50.794;7.054;2022-12-17T01:04:12;113.65;;;32.03;;
72924;SDS011;61070;50.794;7.054;2022-12-17T01:06:56;114.07;;;30.25;;
72924;SDS011;61070;50.794;7.054;2022-12-17T01:09:40;109.20;;;30.52;;
72924;SDS011;61070;50.794;7.054;2022-12-17T01:12:24;101.15;;;29.95;;
72924;SDS011;61070;50.794;7.054;2022-12-17T01:15:08;92.20;;;28.58;;
72924;SDS011;61070;50.794;7.054;2022-12-17T01:17:52;107.03;;;28.85;;
72924;SDS011;61070;50.794;7.054;2022-12-17T01:20:36;95.57;;;28.60;;
72924;SDS011;61070;50.794;7.054;2022-12-17T01:23:19;105.55;;;28.67;;
72924;SDS011;61070;50.794;7.054;2022-12-17T01:26:03;117.75;;;29.77;;
72924;SDS011;61070;50.794;7.054;2022-12-17T01:28:47;112.43;;;31.27;;
72924;SDS011;61070;50.794;7.054;2022-12-17T01:31:31;109.22;;;31.52;;
72924;SDS011;61070;50.794;7.054;2022-12-17T01:34:15;96.35;;;28.92;;
72924;SDS011;61070;50.794;7.054;2022-12-17T01:36:59;96.03;;;28.77;;
72924;SDS011;61070;50.794;7.054;2022-12-17T01:39:43;117.88;;;30.50;;
72924;SDS011;61070;50.794;7.054;2022-12-17T01:42:35;107.32;;;29.25;;
72924;SDS011;61070;50.794;7.054;2022-12-17T01:45:20;92.55;;;29.25;;
72924;SDS011;61070;50.794;7.054;2022-12-17T01:48:03;103.10;;;28.17;;
72924;SDS011;61070;50.794;7.054;2022-12-17T01:50:55;110.97;;;31.60;;
72924;SDS011;61070;50.794;7.054;2022-12-17T01:53:45;106.68;;;28.58;;
72924;SDS011;61070;50.794;7.054;2022-12-17T01:56:31;96.75;;;28.65;;
72924;SDS011;61070;50.794;7.054;2022-12-17T01:59:17;101.53;;;27.63;;
72924;SDS011;61070;50.794;7.054;2022-12-17T02:02:09;109.90;;;27.02;;
72924;SDS011;61070;50.794;7.054;2022-12-17T02:04:53;96.80;;;29.95;;
72924;SDS011;61070;50.794;7.054;2022-12-17T02:07:50;97.72;;;29.02;;
72924;SDS011;61070;50.794;7.054;2022-12-17T02:13:54;101.60;;;26.60;;
72924;SDS011;61070;50.794;7.054;2022-12-17T02:16:49;94.70;;;27.63;;
72924;SDS011;61070;50.794;7.054;2022-12-17T02:20:03;93.93;;;28.33;;
72924;SDS011;61070;50.794;7.054;2022-12-17T02:23:16;97.88;;;28.15;;
72924;SDS011;61070;50.794;7.054;2022-12-17T02:29:37;91.80;;;26.55;;
72924;SDS011;61070;50.794;7.054;2022-12-17T02:32:25;105.25;;;29.35;;
72924;SDS011;61070;50.794;7.054;2022-12-17T02:35:22;96.03;;;26.88;;
72924;SDS011;61070;50.794;7.054;2022-12-17T02:41:02;92.45;;;26.55;;
72924;SDS011;61070;50.794;7.054;2022-12-17T02:43:49;92.85;;;26.08;;
72924;SDS011;61070;50.794;7.054;2022-12-17T02:46:34;87.90;;;25.95;;
72924;SDS011;61070;50.794;7.054;2022-12-17T02:49:18;87.95;;;25.80;;
72924;SDS011;61070;50.794;7.054;2022-12-17T02:52:02;85.30;;;26.17;;
72924;SDS011;61070;50.794;7.054;2022-12-17T02:54:46;83.20;;;24.42;;
72924;SDS011;61070;50.794;7.054;2022-12-17T02:57:30;92.93;;;28.02;;
72924;SDS011;61070;50.794;7.054;2022-12-17T03:00:14;95.55;;;26.40;;
72924;SDS011;61070;50.794;7.054;2022-12-17T03:02:58;99.82;;;26.13;;
72924;SDS011;61070;50.794;7.054;2022-12-17T03:05:42;96.75;;;26.55;;
72924;SDS011;61070;50.794;7.054;2022-12-17T03:08:26;88.47;;;27.55;;
72924;SDS011;61070;50.794;7.054;2022-12-17T03:11:09;89.97;;;24.98;;
72924;SDS011;61070;50.794;7.054;2022-12-17T03:13:53;83.07;;;25.95;;
72924;SDS011;61070;50.794;7.054;2022-12-17T03:16:37;86.72;;;24.75;;
72924;SDS011;61070;50.794;7.054;2022-12-17T03:19:21;85.32;;;24.90;;
72924;SDS011;61070;50.794;7.054;2022-12-17T03:22:05;79.55;;;24.25;;
72924;SDS011;61070;50.794;7.054;2022-12-17T03:24:49;91.72;;;26.20;;
72924;SDS011;61070;50.794;7.054;2022-12-17T03:27:33;90.55;;;25.30;;
72924;SDS011;61070;50.794;7.054;2022-12-17T03:30:16;87.68;;;25.77;;
72924;SDS011;61070;50.794;7.054;2022-12-17T03:33:00;82.07;;;23.80;;
72924;SDS011;61070;50.794;7.054;2022-12-17T03:35:44;87.43;;;25.55;;
72924;SDS011;61070;50.794;7.054;2022-12-17T03:38:27;96.95;;;25.92;;
72924;SDS011;61070;50.794;7.054;2022-12-17T03:41:11;77.40;;;24.02;;
72924;SDS011;61070;50.794;7.054;2022-12-17T03:43:55;98.22;;;26.63;;
72924;SDS011;61070;50.794;7.054;2022-12-17T03:46:39;93.25;;;25.08;;
72924;SDS011;61070;50.794;7.054;2022-12-17T03:49:22;99.45;;;25.73;;
72924;SDS011;61070;50.794;7.054;2022-12-17T03:52:06;85.75;;;24.10;;
72924;SDS011;61070;50.794;7.054;2022-12-17T03:54:50;75.10;;;22.88;;
72924;SDS011;61070;50.794;7.054;2022-12-17T03:57:34;86.18;;;24.38;;
72924;SDS011;61070;50.794;7.054;2022-12-17T04:00:19;80.25;;;23.52;;
72924;SDS011;61070;50.794;7.054;2022-12-17T04:03:02;87.65;;;24.80;;
72924;SDS011;61070;50.794;7.054;2022-12-17T04:05:46;87.15;;;24.60;;
72924;SDS011;61070;50.794;7.054;2022-12-17T04:08:30;100.78;;;23.85;;
72924;SDS011;61070;50.794;7.054;2022-12-17T04:11:14;92.88;;;25.13;;
72924;SDS011;61070;50.794;7.054;2022-12-17T04:13:58;76.75;;;24.13;;
72924;SDS011;61070;50.794;7.054;2022-12-17T04:16:41;79.00;;;22.30;;
72924;SDS011;61070;50.794;7.054;2022-12-17T04:19:25;81.38;;;23.52;;
72924;SDS011;61070;50.794;7.054;2022-12-17T04:22:09;81.93;;;22.48;;
72924;SDS011;61070;50.794;7.054;2022-12-17T04:24:53;93.22;;;24.92;;
72924;SDS011;61070;50.794;7.054;2022-12-17T04:27:37;71.35;;;23.38;;
72924;SDS011;61070;50.794;7.054;2022-12-17T04:30:21;92.03;;;24.38;;
72924;SDS011;61070;50.794;7.054;2022-12-17T04:33:04;91.93;;;23.13;;
72924;SDS011;61070;50.794;7.054;2022-12-17T04:35:48;88.65;;;24.90;;
72924;SDS011;61070;50.794;7.054;2022-12-17T04:38:32;79.18;;;23.92;;
72924;SDS011;61070;50.794;7.054;2022-12-17T04:41:16;82.90;;;23.98;;
72924;SDS011;61070;50.794;7.054;2022-12-17T04:44:00;78.75;;;25.30;;
72924;SDS011;61070;50.794;7.054;2022-12-17T04:46:44;82.97;;;24.65;;
72924;SDS011;61070;50.794;7.054;2022-12-17T04:49:28;80.72;;;25.00;;
72924;SDS011;61070;50.794;7.054;2022-12-17T04:52:12;89.97;;;25.00;;
72924;SDS011;61070;50.794;7.054;2022-12-17T04:54:56;85.80;;;25.65;;
72924;SDS011;61070;50.794;7.054;2022-12-17T04:57:39;80.45;;;25.20;;
72924;SDS011;61070;50.794;7.054;2022-12-17T05:00:23;76.45;;;23.48;;
72924;SDS011;61070;50.794;7.054;2022-12-17T05:03:14;76.07;;;25.33;;
72924;SDS011;61070;50.794;7.054;2022-12-17T05:05:58;80.60;;;25.60;;
72924;SDS011;61070;50.794;7.054;2022-12-17T05:08:43;80.60;;;23.23;;
72924;SDS011;61070;50.794;7.054;2022-12-17T05:11:27;81.55;;;23.30;;
72924;SDS011;61070;50.794;7.054;2022-12-17T05:14:11;73.55;;;23.85;;
72924;SDS011;61070;50.794;7.054;2022-12-17T05:16:55;74.68;;;23.02;;
72924;SDS011;61070;50.794;7.054;2022-12-17T05:19:38;84.53;;;25.05;;
72924;SDS011;61070;50.794;7.054;2022-12-17T05:22:22;93.43;;;27.30;;
72924;SDS011;61070;50.794;7.054;2022-12-17T05:25:06;82.03;;;24.25;;
72924;SDS011;61070;50.794;7.054;2022-12-17T05:27:50;76.47;;;24.77;;
72924;SDS011;61070;50.794;7.054;2022-12-17T05:30:34;80.22;;;25.67;;
72924;SDS011;61070;50.794;7.054;2022-12-17T05:33:18;72.55;;;24.27;;
72924;SDS011;61070;50.794;7.054;2022-12-17T05:36:02;66.18;;;23.60;;
72924;SDS011;61070;50.794;7.054;2022-12-17T05:38:46;82.88;;;24.55;;
72924;SDS011;61070;50.794;7.054;2022-12-17T05:41:31;72.22;;;23.92;;
72924;SDS011;61070;50.794;7.054;2022-12-17T05:44:15;80.45;;;27.02;;
72924;SDS011;61070;50.794;7.054;2022-12-17T05:46:59;66.95;;;23.55;;
72924;SDS011;61070;50.794;7.054;2022-12-17T05:49:43;67.32;;;23.65;;
72924;SDS011;61070;50.794;7.054;2022-12-17T05:52:26;79.00;;;23.85;;
72924;SDS011;61070;50.794;7.054;2022-12-17T05:55:10;72.60;;;24.17;;
72924;SDS011;61070;50.794;7.054;2022-12-17T05:58:01;66.32;;;23.60;;
72924;SDS011;61070;50.794;7.054;2022-12-17T06:00:48;77.72;;;24.13;;
72924;SDS011;61070;50.794;7.054;2022-12-17T06:03:32;64.82;;;22.58;;
72924;SDS011;61070;50.794;7.054;2022-12-17T06:06:16;73.22;;;24.13;;
72924;SDS011;61070;50.794;7.054;2022-12-17T06:08:59;58.92;;;22.40;;
72924;SDS011;61070;50.794;7.054;2022-12-17T06:11:43;70.00;;;23.90;;
72924;SDS011;61070;50.794;7.054;2022-12-17T06:14:27;80.57;;;23.90;;
72924;SDS011;61070;50.794;7.054;2022-12-17T06:17:11;74.20;;;24.30;;
72924;SDS011;61070;50.794;7.054;2022-12-17T06:19:54;69.57;;;22.40;;
72924;SDS011;61070;50.794;7.054;2022-12-17T06:22:38;65.97;;;23.17;;
72924;SDS011;61070;50.794;7.054;2022-12-17T06:25:22;68.18;;;22.95;;
72924;SDS011;61070;50.794;7.054;2022-12-17T06:28:06;73.55;;;22.73;;
72924;SDS011;61070;50.794;7.054;2022-12-17T06:30:50;69.80;;;21.83;;
72924;SDS011;61070;50.794;7.054;2022-12-17T06:33:35;69.45;;;23.65;;
72924;SDS011;61070;50.794;7.054;2022-12-17T06:36:19;72.32;;;23.27;;
72924;SDS011;61070;50.794;7.054;2022-12-17T06:39:03;69.90;;;23.70;;
72924;SDS011;61070;50.794;7.054;2022-12-17T06:41:47;68.70;;;21.83;;
72924;SDS011;61070;50.794;7.054;2022-12-17T06:44:31;73.50;;;23.50;;
72924;SDS011;61070;50.794;7.054;2022-12-17T06:47:15;68.38;;;22.90;;
72924;SDS011;61070;50.794;7.054;2022-12-17T06:49:59;72.47;;;21.70;;
72924;SDS011;61070;50.794;7.054;2022-12-17T06:52:43;70.80;;;21.80;;
72924;SDS011;61070;50.794;7.054;2022-12-17T06:55:27;75.15;;;23.90;;
72924;SDS011;61070;50.794;7.054;2022-12-17T06:58:11;66.72;;;24.50;;
72924;SDS011;61070;50.794;7.054;2022-12-17T07:00:55;68.78;;;22.15;;
72924;SDS011;61070;50.794;7.054;2022-12-17T07:03:38;56.17;;;21.00;;
72924;SDS011;61070;50.794;7.054;2022-12-17T07:06:22;65.72;;;21.55;;
72924;SDS011;61070;50.794;7.054;2022-12-17T07:09:06;60.25;;;22.92;;
72924;SDS011;61070;50.794;7.054;2022-12-17T07:11:50;70.15;;;23.40;;
72924;SDS011;61070;50.794;7.054;2022-12-17T07:14:33;64.07;;;21.83;;
72924;SDS011;61070;50.794;7.054;2022-12-17T07:17:17;51.58;;;17.75;;
72924;SDS011;61070;50.794;7.054;2022-12-17T07:20:02;44.22;;;15.45;;
72924;SDS011;61070;50.794;7.054;2022-12-17T07:22:46;40.53;;;15.13;;
72924;SDS011;61070;50.794;7.054;2022-12-17T07:25:30;42.63;;;13.63;;
72924;SDS011;61070;50.794;7.054;2022-12-17T07:28:14;40.17;;;16.02;;
72924;SDS011;61070;50.794;7.054;2022-12-17T07:30:58;43.78;;;15.35;;
72924;SDS011;61070;50.794;7.054;2022-12-17T07:33:42;37.80;;;14.35;;
72924;SDS011;61070;50.794;7.054;2022-12-17T07:36:25;37.63;;;15.05;;
72924;SDS011;61070;50.794;7.054;2022-12-17T07:39:29;39.78;;;14.68;;
72924;SDS011;61070;50.794;7.054;2022-12-17T07:42:13;36.15;;;14.27;;
72924;SDS011;61070;50.794;7.054;2022-12-17T07:44:57;45.15;;;14.93;;
72924;SDS011;61070;50.794;7.054;2022-12-17T07:47:41;36.10;;;13.05;;
72924;SDS011;61070;50.794;7.054;2022-12-17T07:50:25;40.78;;;14.10;;
72924;SDS011;61070;50.794;7.054;2022-12-17T07:53:09;34.75;;;13.85;;
72924;SDS011;61070;50.794;7.054;2022-12-17T07:55:53;35.33;;;11.77;;
72924;SDS011;61070;50.794;7.054;2022-12-17T07:58:36;35.55;;;12.90;;
72924;SDS011;61070;50.794;7.054;2022-12-17T08:01:20;35.70;;;12.70;;
72924;SDS011;61070;50.794;7.054;2022-12-17T08:04:04;35.97;;;14.77;;
72924;SDS011;61070;50.794;7.054;2022-12-17T08:06:49;39.30;;;13.85;;
72924;SDS011;61070;50.794;7.054;2022-12-17T08:09:34;37.63;;;12.90;;
72924;SDS011;61070;50.794;7.054;2022-12-17T08:12:18;33.75;;;13.45;;
72924;SDS011;61070;50.794;7.054;2022-12-17T08:15:21;54.08;;;16.42;;
72924;SDS011;61070;50.794;7.054;2022-12-17T08:18:05;51.80;;;16.90;;
72924;SDS011;61070;50.794;7.054;2022-12-17T08:20:49;47.13;;;16.17;;
72924;SDS011;61070;50.794;7.054;2022-12-17T08:23:34;40.25;;;16.40;;
72924;SDS011;61070;50.794;7.054;2022-12-17T08:26:18;47.25;;;15.43;;
72924;SDS011;61070;50.794;7.054;2022-12-17T08:29:02;45.92;;;14.85;;
72924;SDS011;61070;50.794;7.054;2022-12-17T08:31:46;34.70;;;14.35;;
72924;SDS011;61070;50.794;7.054;2022-12-17T08:34:30;44.80;;;14.80;;
72924;SDS011;61070;50.794;7.054;2022-12-17T08:37:13;42.95;;;16.50;;
72924;SDS011;61070;50.794;7.054;2022-12-17T08:39:57;40.53;;;14.55;;
72924;SDS011;61070;50.794;7.054;2022-12-17T08:42:41;43.83;;;14.80;;
72924;SDS011;61070;50.794;7.054;2022-12-17T08:45:25;39.22;;;13.63;;
72924;SDS011;61070;50.794;7.054;2022-12-17T08:48:09;34.22;;;15.02;;
72924;SDS011;61070;50.794;7.054;2022-12-17T08:51:00;35.92;;;14.55;;
72924;SDS011;61070;50.794;7.054;2022-12-17T08:53:44;43.83;;;14.38;;
72924;SDS011;61070;50.794;7.054;2022-12-17T08:56:28;40.75;;;15.38;;
72924;SDS011;61070;50.794;7.054;2022-12-17T08:59:12;43.38;;;15.25;;
72924;SDS011;61070;50.794;7.054;2022-12-17T09:01:56;33.85;;;14.32;;
72924;SDS011;61070;50.794;7.054;2022-12-17T09:04:40;36.38;;;14.13;;
72924;SDS011;61070;50.794;7.054;2022-12-17T09:07:24;38.58;;;14.63;;
72924;SDS011;61070;50.794;7.054;2022-12-17T09:10:08;46.92;;;15.35;;
72924;SDS011;61070;50.794;7.054;2022-12-17T09:12:52;37.75;;;15.25;;
72924;SDS011;61070;50.794;7.054;2022-12-17T09:15:36;70.20;;;19.90;;
72924;SDS011;61070;50.794;7.054;2022-12-17T09:18:20;43.92;;;17.38;;
72924;SDS011;61070;50.794;7.054;2022-12-17T09:21:05;40.28;;;14.07;;
72924;SDS011;61070;50.794;7.054;2022-12-17T09:23:50;46.40;;;15.15;;
72924;SDS011;61070;50.794;7.054;2022-12-17T09:26:34;41.63;;;16.67;;
72924;SDS011;61070;50.794;7.054;2022-12-17T09:29:18;50.03;;;16.48;;
72924;SDS011;61070;50.794;7.054;2022-12-17T09:32:02;44.78;;;17.85;;
72924;SDS011;61070;50.794;7.054;2022-12-17T09:34:46;55.78;;;18.77;;
72924;SDS011;61070;50.794;7.054;2022-12-17T09:37:30;48.80;;;16.67;;
72924;SDS011;61070;50.794;7.054;2022-12-17T09:40:18;46.05;;;16.38;;
72924;SDS011;61070;50.794;7.054;2022-12-17T09:43:07;45.78;;;16.27;;
72924;SDS011;61070;50.794;7.054;2022-12-17T09:46:11;46.75;;;17.90;;
72924;SDS011;61070;50.794;7.054;2022-12-17T09:49:23;48.13;;;16.50;;
72924;SDS011;61070;50.794;7.054;2022-12-17T09:52:18;48.20;;;17.38;;
72924;SDS011;61070;50.794;7.054;2022-12-17T09:55:20;50.45;;;18.50;;
72924;SDS011;61070;50.794;7.054;2022-12-17T09:58:21;52.17;;;17.05;;
72924;SDS011;61070;50.794;7.054;2022-12-17T10:01:14;49.28;;;17.40;;
72924;SDS011;61070;50.794;7.054;2022-12-17T10:04:01;45.67;;;16.88;;
72924;SDS011;61070;50.794;7.054;2022-12-17T10:06:46;48.70;;;18.33;;
72924;SDS011;61070;50.794;7.054;2022-12-17T10:09:30;49.63;;;17.13;;
72924;SDS011;61070;50.794;7.054;2022-12-17T10:12:17;46.28;;;16.60;;
72924;SDS011;61070;50.794;7.054;2022-12-17T10:15:03;49.53;;;15.13;;
72924;SDS011;61070;50.794;7.054;2022-12-17T10:17:48;47.08;;;17.83;;
72924;SDS011;61070;50.794;7.054;2022-12-17T10:20:49;52.25;;;17.55;;
72924;SDS011;61070;50.794;7.054;2022-12-17T10:23:40;46.05;;;18.38;;
72924;SDS011;61070;50.794;7.054;2022-12-17T10:26:28;47.83;;;17.88;;
72924;SDS011;61070;50.794;7.054;2022-12-17T10:32:08;48.25;;;17.55;;
72924;SDS011;61070;50.794;7.054;2022-12-17T10:34:52;55.45;;;19.60;;
72924;SDS011;61070;50.794;7.054;2022-12-17T10:37:36;54.20;;;20.40;;
72924;SDS011;61070;50.794;7.054;2022-12-17T10:40:24;50.50;;;18.02;;
72924;SDS011;61070;50.794;7.054;2022-12-17T10:46:06;39.50;;;17.10;;
72924;SDS011;61070;50.794;7.054;2022-12-17T10:48:51;47.25;;;16.33;;
72924;SDS011;61070;50.794;7.054;2022-12-17T10:52:04;49.38;;;17.10;;
72924;SDS011;61070;50.794;7.054;2022-12-17T10:54:58;43.72;;;17.08;;
72924;SDS011;61070;50.794;7.054;2022-12-17T10:57:44;45.53;;;17.17;;
72924;SDS011;61070;50.794;7.054;2022-12-17T11:00:32;43.65;;;16.20;;
72924;SDS011;61070;50.794;7.054;2022-12-17T11:06:30;40.35;;;16.15;;
72924;SDS011;61070;50.794;7.054;2022-12-17T11:12:25;40.53;;;15.93;;
72924;SDS011;61070;50.794;7.054;2022-12-17T11:15:16;39.25;;;14.73;;
72924;SDS011;61070;50.794;7.054;2022-12-17T11:18:23;55.42;;;17.52;;
72924;SDS011;61070;50.794;7.054;2022-12-17T11:21:16;41.50;;;15.00;;
72924;SDS011;61070;50.794;7.054;2022-12-17T11:24:16;34.15;;;14.90;;
72924;SDS011;61070;50.794;7.054;2022-12-17T11:27:18;36.15;;;14.55;;
72924;SDS011;61070;50.794;7.054;2022-12-17T11:30:10;40.05;;;15.77;;
72924;SDS011;61070;50.794;7.054;2022-12-17T11:33:00;36.55;;;14.07;;
72924;SDS011;61070;50.794;7.054;2022-12-17T11:36:25;38.03;;;15.05;;
72924;SDS011;61070;50.794;7.054;2022-12-17T11:45:35;36.78;;;14.25;;
72924;SDS011;61070;50.794;7.054;2022-12-17T11:48:38;36.25;;;14.02;;
72924;SDS011;61070;50.794;7.054;2022-12-17T11:51:37;38.58;;;14.15;;
72924;SDS011;61070;50.794;7.054;2022-12-17T11:57:29;24.25;;;10.73;;
72924;SDS011;61070;50.794;7.054;2022-12-17T12:00:20;31.08;;;11.00;;
72924;SDS011;61070;50.794;7.054;2022-12-17T12:05:59;29.75;;;12.45;;
72924;SDS011;61070;50.794;7.054;2022-12-17T12:11:32;35.83;;;14.90;;
72924;SDS011;61070;50.794;7.054;2022-12-17T12:32:45;34.67;;;14.23;;
72924;SDS011;61070;50.794;7.054;2022-12-17T12:35:43;34.28;;;13.68;;
72924;SDS011;61070;50.794;7.054;2022-12-17T12:38:30;44.75;;;14.07;;
72924;SDS011;61070;50.794;7.054;2022-12-17T12:41:29;29.83;;;12.35;;
72924;SDS011;61070;50.794;7.054;2022-12-17T12:44:23;35.78;;;15.65;;
72924;SDS011;61070;50.794;7.054;2022-12-17T12:47:19;36.85;;;14.90;;
72924;SDS011;61070;50.794;7.054;2022-12-17T12:53:23;32.42;;;15.07;;
72924;SDS011;61070;50.794;7.054;2022-12-17T12:56:23;33.58;;;15.35;;
72924;SDS011;61070;50.794;7.054;2022-12-17T12:59:09;38.25;;;13.93;;
72924;SDS011;61070;50.794;7.054;2022-12-17T13:01:55;35.30;;;14.50;;
72924;SDS011;61070;50.794;7.054;2022-12-17T13:04:38;32.60;;;12.50;;
72924;SDS011;61070;50.794;7.054;2022-12-17T13:07:26;36.17;;;14.30;;
72924;SDS011;61070;50.794;7.054;2022-12-17T13:09:54;32.33;;;15.73;;
72924;SDS011;61070;50.794;7.054;2022-12-17T13:12:26;34.33;;;14.40;;
72924;SDS011;61070;50.794;7.054;2022-12-17T13:14:58;38.20;;;14.60;;
72924;SDS011;61070;50.794;7.054;2022-12-17T13:17:35;29.77;;;13.17;;
72924;SDS011;61070;50.794;7.054;2022-12-17T13:23:03;32.55;;;13.85;;
72924;SDS011;61070;50.794;7.054;2022-12-17T13:25:35;27.98;;;13.13;;
72924;SDS011;61070;50.794;7.054;2022-12-17T13:28:01;30.17;;;12.32;;
72924;SDS011;61070;50.794;7.054;2022-12-17T13:30:36;31.58;;;15.25;;
72924;SDS011;61070;50.794;7.054;2022-12-17T13:39:54;30.27;;;12.82;;
72924;SDS011;61070;50.794;7.054;2022-12-17T13:42:26;32.88;;;14.30;;
72924;SDS011;61070;50.794;7.054;2022-12-17T13:44:54;24.77;;;11.93;;
72924;SDS011;61070;50.794;7.054;2022-12-17T13:47:25;28.27;;;11.73;;
72924;SDS011;61070;50.794;7.054;2022-12-17T13:49:56;26.25;;;11.82;;
72924;SDS011;61070;50.794;7.054;2022-12-17T13:52:26;35.65;;;13.32;;
72924;SDS011;61070;50.794;7.054;2022-12-17T13:54:53;29.00;;;13.02;;
72924;SDS011;61070;50.794;7.054;2022-12-17T13:57:31;33.72;;;13.13;;
72924;SDS011;61070;50.794;7.054;2022-12-17T13:59:57;27.75;;;11.73;;
72924;SDS011;61070;50.794;7.054;2022-12-17T14:02:25;31.70;;;13.57;;
72924;SDS011;61070;50.794;7.054;2022-12-17T14:04:52;33.17;;;13.55;;
72924;SDS011;61070;50.794;7.054;2022-12-17T14:07:19;33.40;;;14.43;;
72924;SDS011;61070;50.794;7.054;2022-12-17T14:09:45;38.00;;;14.32;;
72924;SDS011;61070;50.794;7.054;2022-12-17T14:12:10;32.03;;;14.45;;
72924;SDS011;61070;50.794;7.054;2022-12-17T14:15:10;35.70;;;15.00;;
72924;SDS011;61070;50.794;7.054;2022-12-17T14:17:46;41.72;;;16.63;;
72924;SDS011;61070;50.794;7.054;2022-12-17T14:20:17;42.20;;;17.17;;
72924;SDS011;61070;50.794;7.054;2022-12-17T14:22:46;44.60;;;18.25;;
72924;SDS011;61070;50.794;7.054;2022-12-17T14:25:15;35.67;;;16.33;;
72924;SDS011;61070;50.794;7.054;2022-12-17T14:27:51;41.47;;;17.17;;
72924;SDS011;61070;50.794;7.054;2022-12-17T14:30:23;41.83;;;18.73;;
72924;SDS011;61070;50.794;7.054;2022-12-17T14:32:55;48.45;;;20.52;;
72924;SDS011;61070;50.794;7.054;2022-12-17T14:35:22;47.20;;;20.85;;
72924;SDS011;61070;50.794;7.054;2022-12-17T14:37:55;72.70;;;27.38;;
72924;SDS011;61070;50.794;7.054;2022-12-17T14:40:21;32.80;;;16.75;;
72924;SDS011;61070;50.794;7.054;2022-12-17T14:42:48;34.63;;;16.92;;
72924;SDS011;61070;50.794;7.054;2022-12-17T14:47:39;40.10;;;17.27;;
72924;SDS011;61070;50.794;7.054;2022-12-17T14:52:44;33.85;;;16.17;;
72924;SDS011;61070;50.794;7.054;2022-12-17T14:56:16;29.95;;;12.25;;
72924;SDS011;61070;50.794;7.054;2022-12-17T14:58:19;40.80;;;15.88;;
72924;SDS011;61070;50.794;7.054;2022-12-17T15:03:36;39.17;;;18.05;;
72924;SDS011;61070;50.794;7.054;2022-12-17T15:06:05;37.63;;;17.42;;
72924;SDS011;61070;50.794;7.054;2022-12-17T15:08:33;39.05;;;18.50;;
72924;SDS011;61070;50.794;7.054;2022-12-17T15:11:04;38.30;;;17.70;;
72924;SDS011;61070;50.794;7.054;2022-12-17T15:13:29;34.67;;;16.65;;
72924;SDS011;61070;50.794;7.054;2022-12-17T15:15:55;38.15;;;18.35;;
72924;SDS011;61070;50.794;7.054;2022-12-17T15:18:20;36.92;;;16.60;;
72924;SDS011;61070;50.794;7.054;2022-12-17T15:20:46;41.53;;;17.70;;
72924;SDS011;61070;50.794;7.054;2022-12-17T15:23:15;34.80;;;16.02;;
72924;SDS011;61070;50.794;7.054;2022-12-17T15:25:42;35.13;;;15.85;;
72924;SDS011;61070;50.794;7.054;2022-12-17T15:28:08;33.80;;;15.82;;
72924;SDS011;61070;50.794;7.054;2022-12-17T15:30:34;39.65;;;17.67;;
72924;SDS011;61070;50.794;7.054;2022-12-17T15:33:00;47.70;;;17.85;;
72924;SDS011;61070;50.794;7.054;2022-12-17T15:35:25;41.08;;;18.27;;
72924;SDS011;61070;50.794;7.054;2022-12-17T15:37:50;47.42;;;18.80;;
72924;SDS011;61070;50.794;7.054;2022-12-17T15:40:15;51.58;;;20.48;;
72924;SDS011;61070;50.794;7.054;2022-12-17T15:42:41;45.92;;;20.08;;
72924;SDS011;61070;50.794;7.054;2022-12-17T15:45:25;46.88;;;18.85;;
72924;SDS011;61070;50.794;7.054;2022-12-17T15:47:50;39.00;;;16.90;;
72924;SDS011;61070;50.794;7.054;2022-12-17T15:50:16;36.25;;;17.15;;
72924;SDS011;61070;50.794;7.054;2022-12-17T15:52:41;39.20;;;17.20;;
72924;SDS011;61070;50.794;7.054;2022-12-17T15:55:06;43.90;;;18.08;;
72924;SDS011;61070;50.794;7.054;2022-12-17T15:57:32;41.65;;;19.67;;
72924;SDS011;61070;50.794;7.054;2022-12-17T15:59:57;48.00;;;19.70;;
72924;SDS011;61070;50.794;7.054;2022-12-17T16:02:23;46.13;;;19.45;;
72924;SDS011;61070;50.794;7.054;2022-12-17T16:04:48;38.88;;;17.27;;
72924;SDS011;61070;50.794;7.054;2022-12-17T16:07:13;39.30;;;18.50;;
72924;SDS011;61070;50.794;7.054;2022-12-17T16:09:40;43.42;;;16.52;;
72924;SDS011;61070;50.794;7.054;2022-12-17T16:12:05;37.63;;;16.00;;
72924;SDS011;61070;50.794;7.054;2022-12-17T16:14:31;38.15;;;17.95;;
72924;SDS011;61070;50.794;7.054;2022-12-17T16:16:56;39.28;;;17.40;;
72924;SDS011;61070;50.794;7.054;2022-12-17T16:19:21;43.10;;;18.65;;
72924;SDS011;61070;50.794;7.054;2022-12-17T16:21:46;41.28;;;18.23;;
72924;SDS011;61070;50.794;7.054;2022-12-17T16:24:12;40.45;;;17.52;;
72924;SDS011;61070;50.794;7.054;2022-12-17T16:26:37;41.67;;;19.25;;
72924;SDS011;61070;50.794;7.054;2022-12-17T16:29:03;43.25;;;18.58;;
72924;SDS011;61070;50.794;7.054;2022-12-17T16:31:28;43.90;;;18.10;;
72924;SDS011;61070;50.794;7.054;2022-12-17T16:33:53;44.42;;;19.98;;
72924;SDS011;61070;50.794;7.054;2022-12-17T16:36:19;41.42;;;19.92;;
72924;SDS011;61070;50.794;7.054;2022-12-17T16:38:46;39.67;;;18.02;;
72924;SDS011;61070;50.794;7.054;2022-12-17T16:41:14;41.42;;;18.50;;
72924;SDS011;61070;50.794;7.054;2022-12-17T16:43:43;39.65;;;18.60;;
72924;SDS011;61070;50.794;7.054;2022-12-17T16:48:55;44.40;;;20.88;;
72924;SDS011;61070;50.794;7.054;2022-12-17T16:51:22;47.80;;;21.10;;
72924;SDS011;61070;50.794;7.054;2022-12-17T16:53:49;50.00;;;21.05;;
72924;SDS011;61070;50.794;7.054;2022-12-17T16:56:15;47.63;;;20.65;;
72924;SDS011;61070;50.794;7.054;2022-12-17T16:58:42;47.03;;;21.52;;
72924;SDS011;61070;50.794;7.054;2022-12-17T17:01:08;43.95;;;20.90;;
72924;SDS011;61070;50.794;7.054;2022-12-17T17:03:37;54.03;;;21.85;;
72924;SDS011;61070;50.794;7.054;2022-12-17T17:06:06;52.95;;;21.42;;